sensor_id;sensor_type;location;lat;lon;timestamp;P1;durP1;ratioP1;P2;durP2;ratioP2
16093;SDS011;8151;47.824;12.092;2022-11-11T00:01:03;5.93;;;3.17;;
16093;SDS011;8151;47.824;12.092;2022-11-11T00:03:33;3.53;;;2.90;;
16093;SDS011;8151;47.824;12.092;2022-11-11T00:06:04;5.23;;;3.00;;
16093;SDS011;8151;47.824;12.092;2022-11-11T00:08:33;2.90;;;2.33;;
16093;SDS011;8151;47.824;12.092;2022-11-11T00:11:02;2.40;;;2.17;;
16093;SDS011;8151;47.824;12.092;2022-11-11T00:13:33;2.57;;;2.20;;
16093;SDS011;8151;47.824;12.092;2022-11-11T00:16:05;4.37;;;2.20;;
16093;SDS011;8151;47.824;12.092;2022-11-11T00:18:36;2.27;;;2.07;;
16093;SDS011;8151;47.824;12.092;2022-11-11T00:21:22;2.10;;;1.90;;
16093;SDS011;8151;47.824;12.092;2022-11-11T00:24:20;2.40;;;2.03;;
16093;SDS011;8151;47.824;12.092;2022-11-11T00:27:08;2.10;;;1.90;;
16093;SDS011;8151;47.824;12.092;2022-11-11T00:29:38;1.73;;;1.63;;
16093;SDS011;8151;47.824;12.092;2022-11-11T00:32:07;2.80;;;2.10;;
16093;SDS011;8151;47.824;12.092;2022-11-11T00:34:55;2.27;;;1.87;;
16093;SDS011;8151;47.824;12.092;2022-11-11T00:37:43;2.20;;;2.00;;
16093;SDS011;8151;47.824;12.092;2022-11-11T00:40:14;2.10;;;1.90;;
16093;SDS011;8151;47.824;12.092;2022-11-11T00:42:43;1.80;;;1.70;;
16093;SDS011;8151;47.824;12.092;2022-11-11T00:45:12;2.10;;;1.83;;
16093;SDS011;8151;47.824;12.092;2022-11-11T00:47:42;2.40;;;1.90;;
16093;SDS011;8151;47.824;12.092;2022-11-11T00:50:32;1.93;;;1.70;;
16093;SDS011;8151;47.824;12.092;2022-11-11T00:53:18;1.57;;;1.47;;
16093;SDS011;8151;47.824;12.092;2022-11-11T00:55:53;1.83;;;1.73;;
16093;SDS011;8151;47.824;12.092;2022-11-11T00:58:23;1.57;;;1.47;;
16093;SDS011;8151;47.824;12.092;2022-11-11T01:00:54;2.00;;;1.90;;
16093;SDS011;8151;47.824;12.092;2022-11-11T01:03:23;3.10;;;1.93;;
16093;SDS011;8151;47.824;12.092;2022-11-11T01:05:52;2.10;;;1.87;;
16093;SDS011;8151;47.824;12.092;2022-11-11T01:08:23;1.87;;;1.73;;
16093;SDS011;8151;47.824;12.092;2022-11-11T01:10:53;2.13;;;1.73;;
16093;SDS011;8151;47.824;12.092;2022-11-11T01:13:22;2.00;;;1.50;;
16093;SDS011;8151;47.824;12.092;2022-11-11T01:15:52;2.17;;;1.90;;
16093;SDS011;8151;47.824;12.092;2022-11-11T01:18:25;1.73;;;1.63;;
16093;SDS011;8151;47.824;12.092;2022-11-11T01:21:00;6.40;;;1.73;;
16093;SDS011;8151;47.824;12.092;2022-11-11T01:23:31;1.80;;;1.60;;
16093;SDS011;8151;47.824;12.092;2022-11-11T01:26:03;2.17;;;1.73;;
16093;SDS011;8151;47.824;12.092;2022-11-11T01:28:33;3.47;;;1.80;;
16093;SDS011;8151;47.824;12.092;2022-11-11T01:31:02;2.73;;;2.07;;
16093;SDS011;8151;47.824;12.092;2022-11-11T01:33:32;1.83;;;1.73;;
16093;SDS011;8151;47.824;12.092;2022-11-11T01:36:04;1.80;;;1.60;;
16093;SDS011;8151;47.824;12.092;2022-11-11T01:38:34;3.03;;;2.00;;
16093;SDS011;8151;47.824;12.092;2022-11-11T01:41:03;2.67;;;1.87;;
16093;SDS011;8151;47.824;12.092;2022-11-11T01:43:47;2.77;;;2.43;;
16093;SDS011;8151;47.824;12.092;2022-11-11T01:46:17;4.13;;;2.97;;
16093;SDS011;8151;47.824;12.092;2022-11-11T01:48:53;3.40;;;2.87;;
16093;SDS011;8151;47.824;12.092;2022-11-11T01:51:46;3.47;;;2.97;;
16093;SDS011;8151;47.824;12.092;2022-11-11T01:54:20;5.70;;;3.13;;
16093;SDS011;8151;47.824;12.092;2022-11-11T01:56:54;3.17;;;2.87;;
16093;SDS011;8151;47.824;12.092;2022-11-11T01:59:27;2.70;;;2.50;;
16093;SDS011;8151;47.824;12.092;2022-11-11T02:01:58;7.87;;;3.17;;
16093;SDS011;8151;47.824;12.092;2022-11-11T02:04:32;3.20;;;2.57;;
16093;SDS011;8151;47.824;12.092;2022-11-11T02:07:20;2.47;;;2.27;;
16093;SDS011;8151;47.824;12.092;2022-11-11T02:09:50;2.43;;;2.23;;
16093;SDS011;8151;47.824;12.092;2022-11-11T02:12:19;4.10;;;2.67;;
16093;SDS011;8151;47.824;12.092;2022-11-11T02:15:05;4.27;;;2.63;;
16093;SDS011;8151;47.824;12.092;2022-11-11T02:17:34;2.93;;;2.40;;
16093;SDS011;8151;47.824;12.092;2022-11-11T02:20:03;2.57;;;2.37;;
16093;SDS011;8151;47.824;12.092;2022-11-11T02:22:37;2.70;;;2.40;;
16093;SDS011;8151;47.824;12.092;2022-11-11T02:25:15;5.10;;;2.63;;
16093;SDS011;8151;47.824;12.092;2022-11-11T02:27:46;3.20;;;2.80;;
16093;SDS011;8151;47.824;12.092;2022-11-11T02:30:18;2.40;;;2.20;;
16093;SDS011;8151;47.824;12.092;2022-11-11T02:32:48;1.90;;;1.80;;
16093;SDS011;8151;47.824;12.092;2022-11-11T02:35:20;2.10;;;1.90;;
16093;SDS011;8151;47.824;12.092;2022-11-11T02:37:52;2.30;;;2.10;;
16093;SDS011;8151;47.824;12.092;2022-11-11T02:40:22;2.37;;;2.17;;
16093;SDS011;8151;47.824;12.092;2022-11-11T02:42:54;2.30;;;2.10;;
16093;SDS011;8151;47.824;12.092;2022-11-11T02:45:23;2.40;;;2.20;;
16093;SDS011;8151;47.824;12.092;2022-11-11T02:47:52;2.20;;;2.00;;
16093;SDS011;8151;47.824;12.092;2022-11-11T02:50:20;2.13;;;1.90;;
16093;SDS011;8151;47.824;12.092;2022-11-11T02:52:49;2.40;;;2.20;;
16093;SDS011;8151;47.824;12.092;2022-11-11T02:55:17;2.00;;;1.80;;
16093;SDS011;8151;47.824;12.092;2022-11-11T02:57:47;2.03;;;1.83;;
16093;SDS011;8151;47.824;12.092;2022-11-11T03:00:16;3.17;;;1.93;;
16093;SDS011;8151;47.824;12.092;2022-11-11T03:02:45;2.30;;;2.10;;
16093;SDS011;8151;47.824;12.092;2022-11-11T03:05:14;2.20;;;2.00;;
16093;SDS011;8151;47.824;12.092;2022-11-11T03:07:42;2.53;;;2.00;;
16093;SDS011;8151;47.824;12.092;2022-11-11T03:10:11;3.27;;;2.00;;
16093;SDS011;8151;47.824;12.092;2022-11-11T03:12:39;1.90;;;1.80;;
16093;SDS011;8151;47.824;12.092;2022-11-11T03:15:09;2.00;;;1.90;;
16093;SDS011;8151;47.824;12.092;2022-11-11T03:17:38;1.90;;;1.80;;
16093;SDS011;8151;47.824;12.092;2022-11-11T03:20:06;1.93;;;1.73;;
16093;SDS011;8151;47.824;12.092;2022-11-11T03:23:00;3.03;;;2.00;;
16093;SDS011;8151;47.824;12.092;2022-11-11T03:25:30;1.50;;;1.40;;
16093;SDS011;8151;47.824;12.092;2022-11-11T03:28:08;1.70;;;1.60;;
16093;SDS011;8151;47.824;12.092;2022-11-11T03:30:39;2.30;;;1.90;;
16093;SDS011;8151;47.824;12.092;2022-11-11T03:33:09;2.40;;;2.20;;
16093;SDS011;8151;47.824;12.092;2022-11-11T03:35:38;1.73;;;1.63;;
16093;SDS011;8151;47.824;12.092;2022-11-11T03:38:08;3.03;;;2.30;;
16093;SDS011;8151;47.824;12.092;2022-11-11T03:40:50;2.30;;;2.10;;
16093;SDS011;8151;47.824;12.092;2022-11-11T03:43:20;1.97;;;1.87;;
16093;SDS011;8151;47.824;12.092;2022-11-11T03:45:52;2.50;;;2.30;;
16093;SDS011;8151;47.824;12.092;2022-11-11T03:48:22;2.07;;;1.80;;
16093;SDS011;8151;47.824;12.092;2022-11-11T03:50:51;5.40;;;2.60;;
16093;SDS011;8151;47.824;12.092;2022-11-11T03:53:20;3.43;;;2.30;;
16093;SDS011;8151;47.824;12.092;2022-11-11T03:55:50;7.67;;;2.67;;
16093;SDS011;8151;47.824;12.092;2022-11-11T03:58:19;4.83;;;2.43;;
16093;SDS011;8151;47.824;12.092;2022-11-11T04:00:47;4.13;;;3.00;;
16093;SDS011;8151;47.824;12.092;2022-11-11T04:03:17;5.57;;;2.80;;
16093;SDS011;8151;47.824;12.092;2022-11-11T04:06:18;4.63;;;2.70;;
16093;SDS011;8151;47.824;12.092;2022-11-11T04:09:06;24.90;;;3.20;;
16093;SDS011;8151;47.824;12.092;2022-11-11T04:11:52;5.00;;;2.40;;
16093;SDS011;8151;47.824;12.092;2022-11-11T04:14:21;60.33;;;3.83;;
16093;SDS011;8151;47.824;12.092;2022-11-11T04:17:07;30.30;;;2.90;;
16093;SDS011;8151;47.824;12.092;2022-11-11T04:19:36;9.20;;;2.67;;
16093;SDS011;8151;47.824;12.092;2022-11-11T04:22:22;10.07;;;2.07;;
16093;SDS011;8151;47.824;12.092;2022-11-11T04:24:51;3.07;;;2.57;;
16093;SDS011;8151;47.824;12.092;2022-11-11T04:27:37;2.40;;;2.20;;
16093;SDS011;8151;47.824;12.092;2022-11-11T04:30:05;10.57;;;5.00;;
16093;SDS011;8151;47.824;12.092;2022-11-11T04:32:33;3.60;;;3.30;;
16093;SDS011;8151;47.824;12.092;2022-11-11T04:35:06;5.30;;;2.97;;
16093;SDS011;8151;47.824;12.092;2022-11-11T04:37:37;2.50;;;2.30;;
16093;SDS011;8151;47.824;12.092;2022-11-11T04:40:12;2.80;;;2.13;;
16093;SDS011;8151;47.824;12.092;2022-11-11T04:42:58;2.63;;;1.87;;
16093;SDS011;8151;47.824;12.092;2022-11-11T04:45:27;3.03;;;1.70;;
16093;SDS011;8151;47.824;12.092;2022-11-11T04:47:55;2.87;;;1.63;;
16093;SDS011;8151;47.824;12.092;2022-11-11T04:50:26;2.07;;;1.63;;
16093;SDS011;8151;47.824;12.092;2022-11-11T04:52:56;2.23;;;1.93;;
16093;SDS011;8151;47.824;12.092;2022-11-11T04:55:25;1.73;;;1.63;;
16093;SDS011;8151;47.824;12.092;2022-11-11T04:58:11;2.23;;;1.60;;
16093;SDS011;8151;47.824;12.092;2022-11-11T05:00:39;2.10;;;1.90;;
16093;SDS011;8151;47.824;12.092;2022-11-11T05:03:09;1.90;;;1.70;;
16093;SDS011;8151;47.824;12.092;2022-11-11T05:05:47;1.70;;;1.60;;
16093;SDS011;8151;47.824;12.092;2022-11-11T05:08:35;2.90;;;1.90;;
16093;SDS011;8151;47.824;12.092;2022-11-11T05:11:22;2.23;;;1.70;;
16093;SDS011;8151;47.824;12.092;2022-11-11T05:13:53;2.23;;;1.70;;
16093;SDS011;8151;47.824;12.092;2022-11-11T05:16:41;2.03;;;1.93;;
16093;SDS011;8151;47.824;12.092;2022-11-11T05:19:28;1.67;;;1.57;;
16093;SDS011;8151;47.824;12.092;2022-11-11T05:22:17;1.70;;;1.60;;
16093;SDS011;8151;47.824;12.092;2022-11-11T05:24:48;2.50;;;1.90;;
16093;SDS011;8151;47.824;12.092;2022-11-11T05:27:34;2.00;;;1.60;;
16093;SDS011;8151;47.824;12.092;2022-11-11T05:30:04;1.60;;;1.50;;
16093;SDS011;8151;47.824;12.092;2022-11-11T05:32:33;2.00;;;1.70;;
16093;SDS011;8151;47.824;12.092;2022-11-11T05:35:02;1.60;;;1.50;;
16093;SDS011;8151;47.824;12.092;2022-11-11T05:37:33;2.20;;;1.70;;
16093;SDS011;8151;47.824;12.092;2022-11-11T05:40:01;1.83;;;1.50;;
16093;SDS011;8151;47.824;12.092;2022-11-11T05:42:30;1.60;;;1.50;;
16093;SDS011;8151;47.824;12.092;2022-11-11T05:44:59;2.30;;;1.30;;
16093;SDS011;8151;47.824;12.092;2022-11-11T05:47:27;2.10;;;1.87;;
16093;SDS011;8151;47.824;12.092;2022-11-11T05:49:55;2.40;;;1.57;;
16093;SDS011;8151;47.824;12.092;2022-11-11T05:52:24;1.70;;;1.57;;
16093;SDS011;8151;47.824;12.092;2022-11-11T05:54:54;1.50;;;1.40;;
16093;SDS011;8151;47.824;12.092;2022-11-11T05:57:22;1.93;;;1.50;;
16093;SDS011;8151;47.824;12.092;2022-11-11T05:59:51;1.60;;;1.50;;
16093;SDS011;8151;47.824;12.092;2022-11-11T06:02:19;1.50;;;1.40;;
16093;SDS011;8151;47.824;12.092;2022-11-11T06:04:47;1.10;;;1.10;;
16093;SDS011;8151;47.824;12.092;2022-11-11T06:07:16;1.90;;;1.70;;
16093;SDS011;8151;47.824;12.092;2022-11-11T06:09:44;1.67;;;1.20;;
16093;SDS011;8151;47.824;12.092;2022-11-11T06:12:14;1.50;;;1.40;;
16093;SDS011;8151;47.824;12.092;2022-11-11T06:14:42;1.60;;;1.50;;
16093;SDS011;8151;47.824;12.092;2022-11-11T06:17:10;6.57;;;1.57;;
16093;SDS011;8151;47.824;12.092;2022-11-11T06:19:39;2.33;;;1.50;;
16093;SDS011;8151;47.824;12.092;2022-11-11T06:22:07;1.67;;;1.57;;
16093;SDS011;8151;47.824;12.092;2022-11-11T06:24:35;1.50;;;1.40;;
16093;SDS011;8151;47.824;12.092;2022-11-11T06:27:04;1.30;;;1.20;;
16093;SDS011;8151;47.824;12.092;2022-11-11T06:29:32;1.37;;;1.27;;
16093;SDS011;8151;47.824;12.092;2022-11-11T06:32:01;1.93;;;1.83;;
16093;SDS011;8151;47.824;12.092;2022-11-11T06:34:29;1.30;;;1.30;;
16093;SDS011;8151;47.824;12.092;2022-11-11T06:36:58;1.63;;;1.53;;
16093;SDS011;8151;47.824;12.092;2022-11-11T06:39:26;2.17;;;1.70;;
16093;SDS011;8151;47.824;12.092;2022-11-11T06:41:54;1.63;;;1.53;;
16093;SDS011;8151;47.824;12.092;2022-11-11T06:44:23;2.23;;;1.90;;
16093;SDS011;8151;47.824;12.092;2022-11-11T06:46:52;2.43;;;1.70;;
16093;SDS011;8151;47.824;12.092;2022-11-11T06:49:21;1.83;;;1.57;;
16093;SDS011;8151;47.824;12.092;2022-11-11T06:51:49;2.90;;;1.80;;
16093;SDS011;8151;47.824;12.092;2022-11-11T06:54:18;1.90;;;1.80;;
16093;SDS011;8151;47.824;12.092;2022-11-11T06:56:46;1.70;;;1.60;;
16093;SDS011;8151;47.824;12.092;2022-11-11T06:59:15;1.40;;;1.30;;
16093;SDS011;8151;47.824;12.092;2022-11-11T07:01:43;1.30;;;1.20;;
16093;SDS011;8151;47.824;12.092;2022-11-11T07:04:13;1.53;;;1.43;;
16093;SDS011;8151;47.824;12.092;2022-11-11T07:06:41;1.50;;;1.40;;
16093;SDS011;8151;47.824;12.092;2022-11-11T07:09:10;1.97;;;1.70;;
16093;SDS011;8151;47.824;12.092;2022-11-11T07:11:38;1.63;;;1.53;;
16093;SDS011;8151;47.824;12.092;2022-11-11T07:14:06;2.10;;;1.80;;
16093;SDS011;8151;47.824;12.092;2022-11-11T07:16:35;3.40;;;2.27;;
16093;SDS011;8151;47.824;12.092;2022-11-11T07:19:03;2.60;;;1.90;;
16093;SDS011;8151;47.824;12.092;2022-11-11T07:21:33;2.73;;;1.90;;
16093;SDS011;8151;47.824;12.092;2022-11-11T07:24:02;2.53;;;2.10;;
16093;SDS011;8151;47.824;12.092;2022-11-11T07:26:30;4.87;;;2.67;;
16093;SDS011;8151;47.824;12.092;2022-11-11T07:28:58;2.73;;;2.53;;
16093;SDS011;8151;47.824;12.092;2022-11-11T07:31:27;4.60;;;3.30;;
16093;SDS011;8151;47.824;12.092;2022-11-11T07:33:55;4.80;;;4.30;;
16093;SDS011;8151;47.824;12.092;2022-11-11T07:36:24;7.00;;;3.90;;
16093;SDS011;8151;47.824;12.092;2022-11-11T07:38:54;11.03;;;4.43;;
16093;SDS011;8151;47.824;12.092;2022-11-11T07:41:22;4.67;;;3.47;;
16093;SDS011;8151;47.824;12.092;2022-11-11T07:43:50;8.70;;;4.70;;
16093;SDS011;8151;47.824;12.092;2022-11-11T07:46:19;6.47;;;4.87;;
16093;SDS011;8151;47.824;12.092;2022-11-11T07:48:47;4.23;;;2.90;;
16093;SDS011;8151;47.824;12.092;2022-11-11T07:51:16;4.43;;;3.63;;
16093;SDS011;8151;47.824;12.092;2022-11-11T07:53:44;7.83;;;5.37;;
16093;SDS011;8151;47.824;12.092;2022-11-11T07:56:14;9.37;;;4.47;;
16093;SDS011;8151;47.824;12.092;2022-11-11T07:58:42;6.70;;;4.50;;
16093;SDS011;8151;47.824;12.092;2022-11-11T08:01:10;6.07;;;4.17;;
16093;SDS011;8151;47.824;12.092;2022-11-11T08:03:39;4.97;;;3.50;;
16093;SDS011;8151;47.824;12.092;2022-11-11T08:06:15;3.20;;;2.80;;
16093;SDS011;8151;47.824;12.092;2022-11-11T08:08:44;5.17;;;2.97;;
16093;SDS011;8151;47.824;12.092;2022-11-11T08:11:15;4.77;;;3.60;;
16093;SDS011;8151;47.824;12.092;2022-11-11T08:14:04;4.43;;;3.50;;
16093;SDS011;8151;47.824;12.092;2022-11-11T08:16:31;4.67;;;3.70;;
16093;SDS011;8151;47.824;12.092;2022-11-11T08:19:00;3.87;;;3.57;;
16093;SDS011;8151;47.824;12.092;2022-11-11T08:21:28;11.40;;;6.50;;
16093;SDS011;8151;47.824;12.092;2022-11-11T08:23:56;12.10;;;6.70;;
16093;SDS011;8151;47.824;12.092;2022-11-11T08:26:46;16.30;;;13.50;;
16093;SDS011;8151;47.824;12.092;2022-11-11T08:29:16;7.47;;;5.57;;
16093;SDS011;8151;47.824;12.092;2022-11-11T08:31:44;3.33;;;3.03;;
16093;SDS011;8151;47.824;12.092;2022-11-11T08:34:13;4.17;;;2.67;;
16093;SDS011;8151;47.824;12.092;2022-11-11T08:36:41;3.30;;;3.00;;
16093;SDS011;8151;47.824;12.092;2022-11-11T08:39:09;3.87;;;2.90;;
16093;SDS011;8151;47.824;12.092;2022-11-11T08:41:38;2.57;;;2.37;;
16093;SDS011;8151;47.824;12.092;2022-11-11T08:44:09;2.80;;;2.60;;
16093;SDS011;8151;47.824;12.092;2022-11-11T08:46:37;3.20;;;2.70;;
16093;SDS011;8151;47.824;12.092;2022-11-11T08:49:06;4.47;;;2.60;;
16093;SDS011;8151;47.824;12.092;2022-11-11T08:51:34;8.43;;;4.37;;
16093;SDS011;8151;47.824;12.092;2022-11-11T08:54:10;7.83;;;3.90;;
16093;SDS011;8151;47.824;12.092;2022-11-11T08:56:38;5.97;;;3.97;;
16093;SDS011;8151;47.824;12.092;2022-11-11T08:59:08;4.10;;;2.30;;
16093;SDS011;8151;47.824;12.092;2022-11-11T09:01:37;2.23;;;1.83;;
16093;SDS011;8151;47.824;12.092;2022-11-11T09:04:06;1.60;;;1.50;;
16093;SDS011;8151;47.824;12.092;2022-11-11T09:06:54;1.87;;;1.50;;
16093;SDS011;8151;47.824;12.092;2022-11-11T09:09:23;1.67;;;1.47;;
16093;SDS011;8151;47.824;12.092;2022-11-11T09:11:51;1.63;;;1.53;;
16093;SDS011;8151;47.824;12.092;2022-11-11T09:14:21;2.90;;;1.60;;
16093;SDS011;8151;47.824;12.092;2022-11-11T09:16:50;2.77;;;1.87;;
16093;SDS011;8151;47.824;12.092;2022-11-11T09:19:18;2.50;;;2.20;;
16093;SDS011;8151;47.824;12.092;2022-11-11T09:21:46;2.20;;;2.00;;
16093;SDS011;8151;47.824;12.092;2022-11-11T09:24:15;4.27;;;1.53;;
16093;SDS011;8151;47.824;12.092;2022-11-11T09:26:45;4.07;;;3.03;;
16093;SDS011;8151;47.824;12.092;2022-11-11T09:29:14;3.43;;;2.73;;
16093;SDS011;8151;47.824;12.092;2022-11-11T09:31:45;3.20;;;2.80;;
16093;SDS011;8151;47.824;12.092;2022-11-11T09:34:13;2.63;;;2.20;;
16093;SDS011;8151;47.824;12.092;2022-11-11T09:36:42;2.97;;;2.20;;
16093;SDS011;8151;47.824;12.092;2022-11-11T09:39:10;3.20;;;2.07;;
16093;SDS011;8151;47.824;12.092;2022-11-11T09:41:42;2.00;;;1.90;;
16093;SDS011;8151;47.824;12.092;2022-11-11T09:44:30;2.67;;;2.30;;
16093;SDS011;8151;47.824;12.092;2022-11-11T09:47:12;3.57;;;2.30;;
16093;SDS011;8151;47.824;12.092;2022-11-11T09:52:46;2.97;;;2.30;;
16093;SDS011;8151;47.824;12.092;2022-11-11T09:55:20;2.00;;;1.80;;
16093;SDS011;8151;47.824;12.092;2022-11-11T09:57:52;1.70;;;1.57;;
16093;SDS011;8151;47.824;12.092;2022-11-11T10:00:28;2.73;;;1.57;;
16093;SDS011;8151;47.824;12.092;2022-11-11T10:03:04;2.63;;;1.70;;
16093;SDS011;8151;47.824;12.092;2022-11-11T10:05:40;1.60;;;1.50;;
16093;SDS011;8151;47.824;12.092;2022-11-11T10:08:14;1.73;;;1.50;;
16093;SDS011;8151;47.824;12.092;2022-11-11T10:10:46;2.03;;;1.37;;
16093;SDS011;8151;47.824;12.092;2022-11-11T10:13:17;1.40;;;1.30;;
16093;SDS011;8151;47.824;12.092;2022-11-11T10:15:57;2.17;;;1.63;;
16093;SDS011;8151;47.824;12.092;2022-11-11T10:18:37;1.47;;;1.37;;
16093;SDS011;8151;47.824;12.092;2022-11-11T10:21:18;1.60;;;1.50;;
16093;SDS011;8151;47.824;12.092;2022-11-11T10:23:54;3.17;;;1.73;;
16093;SDS011;8151;47.824;12.092;2022-11-11T10:26:29;1.70;;;1.60;;
16093;SDS011;8151;47.824;12.092;2022-11-11T10:29:03;2.07;;;1.70;;
16093;SDS011;8151;47.824;12.092;2022-11-11T10:31:38;2.13;;;1.93;;
16093;SDS011;8151;47.824;12.092;2022-11-11T10:34:09;1.43;;;1.33;;
16093;SDS011;8151;47.824;12.092;2022-11-11T10:36:41;1.97;;;1.60;;
16093;SDS011;8151;47.824;12.092;2022-11-11T10:39:17;2.67;;;1.83;;
16093;SDS011;8151;47.824;12.092;2022-11-11T10:41:51;1.83;;;1.70;;
16093;SDS011;8151;47.824;12.092;2022-11-11T10:44:20;1.67;;;1.57;;
16093;SDS011;8151;47.824;12.092;2022-11-11T10:46:52;2.30;;;1.60;;
16093;SDS011;8151;47.824;12.092;2022-11-11T10:49:29;3.67;;;1.60;;
16093;SDS011;8151;47.824;12.092;2022-11-11T10:52:02;4.33;;;1.63;;
16093;SDS011;8151;47.824;12.092;2022-11-11T10:54:37;1.63;;;1.53;;
16093;SDS011;8151;47.824;12.092;2022-11-11T10:57:17;1.60;;;1.50;;
16093;SDS011;8151;47.824;12.092;2022-11-11T10:59:52;1.63;;;1.53;;
16093;SDS011;8151;47.824;12.092;2022-11-11T11:02:25;2.53;;;1.80;;
16093;SDS011;8151;47.824;12.092;2022-11-11T11:05:00;2.10;;;1.83;;
16093;SDS011;8151;47.824;12.092;2022-11-11T11:07:36;2.40;;;2.10;;
16093;SDS011;8151;47.824;12.092;2022-11-11T11:10:11;2.17;;;1.80;;
16093;SDS011;8151;47.824;12.092;2022-11-11T11:12:45;3.90;;;1.70;;
16093;SDS011;8151;47.824;12.092;2022-11-11T11:15:18;1.60;;;1.50;;
16093;SDS011;8151;47.824;12.092;2022-11-11T11:17:50;4.47;;;1.70;;
16093;SDS011;8151;47.824;12.092;2022-11-11T11:20:24;2.10;;;1.60;;
16093;SDS011;8151;47.824;12.092;2022-11-11T11:22:53;4.00;;;1.90;;
16093;SDS011;8151;47.824;12.092;2022-11-11T11:25:25;1.90;;;1.80;;
16093;SDS011;8151;47.824;12.092;2022-11-11T11:28:03;1.50;;;1.40;;
16093;SDS011;8151;47.824;12.092;2022-11-11T11:30:34;2.27;;;1.83;;
16093;SDS011;8151;47.824;12.092;2022-11-11T11:33:05;4.70;;;2.87;;
16093;SDS011;8151;47.824;12.092;2022-11-11T11:35:36;4.13;;;2.03;;
16093;SDS011;8151;47.824;12.092;2022-11-11T11:38:07;3.03;;;2.20;;
16093;SDS011;8151;47.824;12.092;2022-11-11T11:40:46;3.13;;;1.80;;
16093;SDS011;8151;47.824;12.092;2022-11-11T11:43:24;2.30;;;2.20;;
16093;SDS011;8151;47.824;12.092;2022-11-11T11:45:58;4.53;;;2.10;;
16093;SDS011;8151;47.824;12.092;2022-11-11T11:48:39;2.67;;;2.03;;
16093;SDS011;8151;47.824;12.092;2022-11-11T11:51:23;2.87;;;1.93;;
16093;SDS011;8151;47.824;12.092;2022-11-11T11:54:02;3.57;;;2.00;;
16093;SDS011;8151;47.824;12.092;2022-11-11T11:56:43;1.73;;;1.63;;
16093;SDS011;8151;47.824;12.092;2022-11-11T11:59:13;2.10;;;1.93;;
16093;SDS011;8151;47.824;12.092;2022-11-11T12:01:50;1.60;;;1.50;;
16093;SDS011;8151;47.824;12.092;2022-11-11T12:04:37;3.20;;;2.10;;
16093;SDS011;8151;47.824;12.092;2022-11-11T12:07:32;2.60;;;1.83;;
16093;SDS011;8151;47.824;12.092;2022-11-11T12:10:19;3.20;;;1.50;;
16093;SDS011;8151;47.824;12.092;2022-11-11T12:12:55;2.93;;;1.80;;
16093;SDS011;8151;47.824;12.092;2022-11-11T12:15:33;3.37;;;1.60;;
16093;SDS011;8151;47.824;12.092;2022-11-11T12:18:10;3.40;;;1.53;;
16093;SDS011;8151;47.824;12.092;2022-11-11T12:21:03;2.93;;;1.93;;
16093;SDS011;8151;47.824;12.092;2022-11-11T12:23:46;1.83;;;1.70;;
16093;SDS011;8151;47.824;12.092;2022-11-11T12:26:23;2.47;;;1.90;;
16093;SDS011;8151;47.824;12.092;2022-11-11T12:28:59;4.67;;;1.70;;
16093;SDS011;8151;47.824;12.092;2022-11-11T12:31:52;3.37;;;2.03;;
16093;SDS011;8151;47.824;12.092;2022-11-11T12:34:36;1.90;;;1.80;;
16093;SDS011;8151;47.824;12.092;2022-11-11T12:37:32;1.93;;;1.43;;
16093;SDS011;8151;47.824;12.092;2022-11-11T12:40:14;6.23;;;1.43;;
16093;SDS011;8151;47.824;12.092;2022-11-11T12:42:57;4.97;;;1.90;;
16093;SDS011;8151;47.824;12.092;2022-11-11T12:45:35;1.80;;;1.70;;
16093;SDS011;8151;47.824;12.092;2022-11-11T12:48:14;3.70;;;3.07;;
16093;SDS011;8151;47.824;12.092;2022-11-11T12:50:58;1.97;;;1.70;;
16093;SDS011;8151;47.824;12.092;2022-11-11T12:53:34;3.30;;;2.77;;
16093;SDS011;8151;47.824;12.092;2022-11-11T12:56:14;3.47;;;1.80;;
16093;SDS011;8151;47.824;12.092;2022-11-11T12:58:54;2.73;;;2.40;;
16093;SDS011;8151;47.824;12.092;2022-11-11T13:01:30;4.03;;;2.20;;
16093;SDS011;8151;47.824;12.092;2022-11-11T13:04:15;3.97;;;1.70;;
16093;SDS011;8151;47.824;12.092;2022-11-11T13:06:59;1.90;;;1.70;;
16093;SDS011;8151;47.824;12.092;2022-11-11T13:09:49;6.27;;;1.90;;
16093;SDS011;8151;47.824;12.092;2022-11-11T13:12:32;3.90;;;2.27;;
16093;SDS011;8151;47.824;12.092;2022-11-11T13:15:10;2.30;;;1.97;;
16093;SDS011;8151;47.824;12.092;2022-11-11T13:17:42;3.97;;;2.70;;
16093;SDS011;8151;47.824;12.092;2022-11-11T13:20:14;2.50;;;1.93;;
16093;SDS011;8151;47.824;12.092;2022-11-11T13:22:51;2.87;;;1.97;;
16093;SDS011;8151;47.824;12.092;2022-11-11T13:25:20;2.30;;;1.67;;
16093;SDS011;8151;47.824;12.092;2022-11-11T13:27:53;2.30;;;2.00;;
16093;SDS011;8151;47.824;12.092;2022-11-11T13:30:35;2.10;;;1.83;;
16093;SDS011;8151;47.824;12.092;2022-11-11T13:33:13;1.67;;;1.47;;
16093;SDS011;8151;47.824;12.092;2022-11-11T13:35:51;4.20;;;1.40;;
16093;SDS011;8151;47.824;12.092;2022-11-11T13:38:26;1.50;;;1.40;;
16093;SDS011;8151;47.824;12.092;2022-11-11T13:40:57;1.63;;;1.50;;
16093;SDS011;8151;47.824;12.092;2022-11-11T13:43:32;3.53;;;1.90;;
16093;SDS011;8151;47.824;12.092;2022-11-11T13:46:03;1.70;;;1.60;;
16093;SDS011;8151;47.824;12.092;2022-11-11T13:48:34;1.93;;;1.70;;
16093;SDS011;8151;47.824;12.092;2022-11-11T13:51:12;1.53;;;1.33;;
16093;SDS011;8151;47.824;12.092;2022-11-11T13:53:49;2.90;;;1.60;;
16093;SDS011;8151;47.824;12.092;2022-11-11T13:56:21;2.40;;;1.90;;
16093;SDS011;8151;47.824;12.092;2022-11-11T13:58:54;2.10;;;1.53;;
16093;SDS011;8151;47.824;12.092;2022-11-11T14:01:26;2.60;;;2.03;;
16093;SDS011;8151;47.824;12.092;2022-11-11T14:04:08;4.03;;;2.40;;
16093;SDS011;8151;47.824;12.092;2022-11-11T14:12:32;6.23;;;1.97;;
16093;SDS011;8151;47.824;12.092;2022-11-11T14:15:05;2.57;;;1.80;;
16093;SDS011;8151;47.824;12.092;2022-11-11T14:18:01;4.40;;;1.80;;
16093;SDS011;8151;47.824;12.092;2022-11-11T14:20:35;3.23;;;1.67;;
16093;SDS011;8151;47.824;12.092;2022-11-11T14:23:15;2.63;;;1.77;;
16093;SDS011;8151;47.824;12.092;2022-11-11T14:28:52;5.60;;;3.03;;
16093;SDS011;8151;47.824;12.092;2022-11-11T14:34:38;2.17;;;2.00;;
16093;SDS011;8151;47.824;12.092;2022-11-11T14:37:28;4.03;;;2.20;;
16093;SDS011;8151;47.824;12.092;2022-11-11T14:40:09;5.20;;;2.63;;
16093;SDS011;8151;47.824;12.092;2022-11-11T14:42:45;5.53;;;2.27;;
16093;SDS011;8151;47.824;12.092;2022-11-11T14:54:25;3.40;;;2.17;;
16093;SDS011;8151;47.824;12.092;2022-11-11T14:57:01;8.00;;;2.33;;
16093;SDS011;8151;47.824;12.092;2022-11-11T14:59:45;3.80;;;2.47;;
16093;SDS011;8151;47.824;12.092;2022-11-11T15:02:20;3.93;;;2.70;;
16093;SDS011;8151;47.824;12.092;2022-11-11T15:04:51;4.93;;;2.80;;
16093;SDS011;8151;47.824;12.092;2022-11-11T15:07:24;5.37;;;3.00;;
16093;SDS011;8151;47.824;12.092;2022-11-11T15:10:03;7.80;;;4.70;;
16093;SDS011;8151;47.824;12.092;2022-11-11T15:12:46;7.93;;;3.50;;
16093;SDS011;8151;47.824;12.092;2022-11-11T15:15:45;2.30;;;2.10;;
16093;SDS011;8151;47.824;12.092;2022-11-11T15:18:25;3.90;;;2.60;;
16093;SDS011;8151;47.824;12.092;2022-11-11T15:21:10;3.60;;;2.30;;
16093;SDS011;8151;47.824;12.092;2022-11-11T15:23:46;2.87;;;2.20;;
16093;SDS011;8151;47.824;12.092;2022-11-11T15:26:25;2.53;;;1.80;;
16093;SDS011;8151;47.824;12.092;2022-11-11T15:29:05;2.77;;;2.10;;
16093;SDS011;8151;47.824;12.092;2022-11-11T15:31:45;2.93;;;2.20;;
16093;SDS011;8151;47.824;12.092;2022-11-11T15:34:24;3.23;;;2.07;;
16093;SDS011;8151;47.824;12.092;2022-11-11T15:37:00;6.00;;;2.80;;
16093;SDS011;8151;47.824;12.092;2022-11-11T15:39:36;3.20;;;2.10;;
16093;SDS011;8151;47.824;12.092;2022-11-11T15:42:10;4.97;;;2.30;;
16093;SDS011;8151;47.824;12.092;2022-11-11T15:44:45;5.07;;;2.50;;
16093;SDS011;8151;47.824;12.092;2022-11-11T15:47:20;5.93;;;2.73;;
16093;SDS011;8151;47.824;12.092;2022-11-11T15:49:50;7.53;;;3.30;;
16093;SDS011;8151;47.824;12.092;2022-11-11T15:52:26;5.23;;;2.80;;